Terminal Aerodrome Forecast
Issued by NWS Shreveport, LA

Home | Current Version | Previous Version | Text Only | Print | Product List | Glossary On
Versions: 1 2 3 4 5 6 7 8 9 10 11 12 13
000
FTUS44 KSHV 261120
TAFLFK
TAF
KLFK 261120Z 2612/2712 00000KT P6SM SCT250
      TEMPO 2612/2614 5SM BR
     FM261400 11003KT P6SM SCT025 SCT250
     FM261600 10005KT P6SM SCT030 SCT045 BKN250
     FM270000 08003KT P6SM SCT060 BKN250=

USA.gov is the U.S. government's official web portal to all federal, state and local government web resources and services.